createdAt,value
2019-02-24T00:00:40.663Z,4.30
2019-02-24T00:03:08.576Z,4.10
2019-02-24T00:05:39.650Z,4.20
2019-02-24T00:08:07.705Z,4.10
2019-02-24T00:10:35.940Z,4.10
2019-02-24T00:13:03.922Z,4.20
2019-02-24T00:15:31.824Z,4.20
2019-02-24T00:18:05.064Z,4.20
2019-02-24T00:20:33.113Z,4.10
2019-02-24T00:23:01.504Z,4.20
2019-02-24T00:25:29.694Z,4.10
2019-02-24T00:27:57.681Z,4.20
2019-02-24T00:30:25.734Z,4.20
2019-02-24T00:32:53.691Z,4.10
2019-02-24T00:35:22.035Z,4.30
2019-02-24T00:37:49.999Z,4.20
2019-02-24T00:40:18.142Z,4.50
2019-02-24T00:42:46.350Z,4.50
2019-02-24T00:45:14.422Z,4.60
2019-02-24T00:47:42.536Z,4.50
2019-02-24T00:50:10.507Z,4.50
2019-02-24T00:52:38.477Z,4.30
2019-02-24T00:55:06.678Z,4.20
2019-02-24T00:57:35.135Z,4.20
2019-02-24T01:00:03.595Z,4.10
2019-02-24T01:02:31.617Z,4.10
2019-02-24T01:05:01.039Z,4.10
2019-02-24T01:07:29.086Z,4.00
2019-02-24T01:09:57.371Z,3.90
2019-02-24T01:12:25.644Z,3.80
2019-02-24T01:14:54.280Z,3.70
2019-02-24T01:17:22.360Z,3.50
2019-02-24T01:19:50.718Z,3.40
2019-02-24T01:22:18.595Z,3.50
2019-02-24T01:24:46.636Z,3.50
2019-02-24T01:27:14.633Z,3.40
2019-02-24T01:29:42.982Z,3.40
2019-02-24T01:32:10.894Z,3.50
2019-02-24T01:34:38.790Z,3.40
2019-02-24T01:37:07.406Z,3.20
2019-02-24T01:39:35.414Z,3.40
2019-02-24T01:42:03.976Z,3.20
2019-02-24T01:44:32.047Z,3.20
2019-02-24T01:47:00.045Z,3.20
2019-02-24T01:49:28.139Z,3.00
2019-02-24T01:51:56.399Z,3.10
2019-02-24T01:54:24.410Z,3.20
2019-02-24T01:56:52.541Z,3.20
2019-02-24T01:59:20.566Z,3.30
2019-02-24T02:01:48.499Z,3.20
2019-02-24T02:04:16.607Z,3.40
2019-02-24T02:06:44.453Z,3.40
2019-02-24T02:09:12.462Z,3.60
2019-02-24T02:11:40.426Z,3.50
2019-02-24T02:14:08.329Z,3.40
2019-02-24T02:16:36.461Z,3.70
2019-02-24T02:19:04.477Z,3.70
2019-02-24T02:21:32.462Z,3.60
2019-02-24T02:24:00.624Z,3.70
2019-02-24T02:26:28.519Z,3.50
2019-02-24T02:28:56.427Z,3.50
2019-02-24T02:31:24.522Z,3.40
2019-02-24T02:33:52.591Z,3.30
2019-02-24T02:36:20.612Z,3.40
2019-02-24T02:38:48.860Z,3.30
2019-02-24T02:41:16.795Z,3.20
2019-02-24T02:43:44.690Z,3.30
2019-02-24T02:46:12.624Z,3.20
2019-02-24T02:48:40.657Z,3.10
2019-02-24T02:51:09.551Z,3.10
2019-02-24T02:53:37.646Z,3.10
2019-02-24T02:56:05.802Z,3.20
2019-02-24T02:58:33.746Z,3.00
2019-02-24T03:01:01.638Z,3.10
2019-02-24T03:03:29.561Z,2.90
2019-02-24T03:06:08.587Z,2.80
2019-02-24T03:08:47.308Z,2.70
2019-02-24T03:11:15.717Z,2.80
2019-02-24T03:13:43.867Z,2.90
2019-02-24T03:16:11.942Z,2.90
2019-02-24T03:18:40.262Z,2.70
2019-02-24T03:21:08.172Z,2.60
2019-02-24T03:23:36.220Z,2.70
2019-02-24T03:26:04.118Z,2.70
2019-02-24T03:28:32.004Z,2.60
2019-02-24T03:31:00.362Z,2.40
2019-02-24T03:33:28.466Z,2.30
2019-02-24T03:35:56.608Z,2.30
2019-02-24T03:38:25.917Z,2.40
2019-02-24T03:40:53.823Z,2.40
2019-02-24T03:43:21.768Z,2.30
2019-02-24T03:45:50.277Z,2.30
2019-02-24T03:48:18.294Z,2.00
2019-02-24T03:50:46.343Z,2.10
2019-02-24T03:53:14.445Z,1.90
2019-02-24T03:55:42.982Z,2.10
2019-02-24T03:58:11.030Z,1.90
2019-02-24T04:00:39.221Z,1.90
2019-02-24T04:03:13.500Z,1.80
2019-02-24T04:05:41.492Z,1.80
2019-02-24T04:08:09.522Z,1.90
2019-02-24T04:10:37.377Z,1.80
2019-02-24T04:13:05.849Z,2.10
2019-02-24T04:15:34.355Z,2.20
2019-02-24T04:18:02.541Z,2.10
2019-02-24T04:20:31.556Z,2.00
2019-02-24T04:22:59.607Z,1.80
2019-02-24T04:25:28.055Z,1.80
2019-02-24T04:27:55.977Z,1.70
2019-02-24T04:30:24.451Z,1.80
2019-02-24T04:32:52.415Z,2.00
2019-02-24T04:35:20.322Z,2.00
2019-02-24T04:37:48.331Z,2.10
2019-02-24T04:40:16.284Z,2.30
2019-02-24T04:42:44.833Z,2.20
2019-02-24T04:45:12.777Z,2.20
2019-02-24T04:47:41.071Z,2.10
2019-02-24T04:50:09.021Z,2.00
2019-02-24T04:52:37.078Z,2.00
2019-02-24T04:55:05.234Z,2.00
2019-02-24T04:57:33.428Z,2.00
2019-02-24T05:00:01.537Z,1.90
2019-02-24T05:02:29.480Z,1.90
2019-02-24T05:04:57.663Z,1.80
2019-02-24T05:07:25.685Z,2.10
2019-02-24T05:09:53.653Z,2.20
2019-02-24T05:12:21.779Z,2.30
2019-02-24T05:14:50.352Z,2.50
2019-02-24T05:17:18.279Z,2.60
2019-02-24T05:19:46.211Z,2.70
2019-02-24T05:22:14.148Z,2.70
2019-02-24T05:24:42.095Z,2.70
2019-02-24T05:27:10.257Z,2.70
2019-02-24T05:29:45.356Z,2.50
2019-02-24T05:32:08.353Z,2.50
2019-02-24T05:34:36.401Z,2.50
2019-02-24T05:37:04.750Z,2.30
2019-02-24T05:39:32.735Z,2.30
2019-02-24T05:42:01.209Z,2.50
2019-02-24T05:44:29.275Z,2.50
2019-02-24T05:46:57.142Z,2.60
2019-02-24T05:49:25.138Z,2.40
2019-02-24T05:51:53.073Z,2.40
2019-02-24T05:54:21.134Z,2.40
2019-02-24T05:56:49.517Z,2.40
2019-02-24T05:59:17.439Z,2.40
2019-02-24T06:01:48.682Z,2.50
2019-02-24T06:04:16.955Z,2.60
2019-02-24T06:06:44.884Z,2.40
2019-02-24T06:09:13.497Z,2.40
2019-02-24T06:11:41.681Z,2.40
2019-02-24T06:14:09.749Z,2.40
2019-02-24T06:16:38.810Z,2.30
2019-02-24T06:19:06.903Z,2.40
2019-02-24T06:21:34.760Z,2.30
2019-02-24T06:24:02.741Z,2.30
2019-02-24T06:26:31.370Z,2.20
2019-02-24T06:28:59.312Z,2.00
2019-02-24T06:31:27.926Z,2.20
2019-02-24T06:33:55.917Z,2.00
2019-02-24T06:36:24.243Z,2.20
2019-02-24T06:38:52.258Z,2.10
2019-02-24T06:41:20.267Z,2.30
2019-02-24T06:43:48.431Z,2.40
2019-02-24T06:46:16.968Z,2.30
2019-02-24T06:48:44.848Z,2.20
2019-02-24T06:51:13.478Z,2.20
2019-02-24T06:53:41.603Z,2.30
2019-02-24T06:56:09.692Z,2.10
2019-02-24T06:58:38.102Z,2.20
2019-02-24T07:01:06.154Z,2.20
2019-02-24T07:03:36.743Z,2.20
2019-02-24T07:06:04.622Z,2.20
2019-02-24T07:08:32.515Z,2.40
2019-02-24T07:11:01.158Z,2.50
2019-02-24T07:13:29.133Z,2.50
2019-02-24T07:15:57.190Z,2.50
2019-02-24T07:18:25.791Z,2.50
2019-02-24T07:20:53.769Z,2.60
2019-02-24T07:23:21.978Z,2.70
2019-02-24T07:25:50.181Z,2.80
2019-02-24T07:28:18.108Z,2.80
2019-02-24T07:30:48.051Z,2.90
2019-02-24T07:33:16.046Z,2.90
2019-02-24T07:35:44.263Z,3.00
2019-02-24T07:38:12.344Z,3.10
2019-02-24T07:40:40.499Z,3.20
2019-02-24T07:43:09.423Z,3.50
2019-02-24T07:45:38.641Z,3.60
2019-02-24T07:48:06.956Z,3.80
2019-02-24T07:50:35.263Z,3.90
2019-02-24T07:53:03.379Z,4.20
2019-02-24T07:55:31.399Z,4.60
2019-02-24T07:57:59.452Z,5.00
2019-02-24T08:00:32.261Z,5.10
2019-02-24T08:02:57.354Z,5.40
2019-02-24T08:05:25.466Z,5.60
2019-02-24T08:07:53.559Z,5.80
2019-02-24T08:10:21.555Z,6.00
2019-02-24T08:12:49.520Z,6.20
2019-02-24T08:15:18.968Z,6.30
2019-02-24T08:17:46.863Z,6.50
2019-02-24T08:20:14.907Z,6.70
2019-02-24T08:22:42.949Z,6.90
2019-02-24T08:25:11.341Z,7.20
2019-02-24T08:27:39.259Z,7.40
2019-02-24T08:30:08.940Z,7.40
2019-02-24T08:32:37.900Z,7.50
2019-02-24T08:35:07.879Z,7.60
2019-02-24T08:37:35.873Z,7.60
2019-02-24T08:40:04.617Z,7.60
2019-02-24T08:42:34.004Z,7.70
2019-02-24T08:45:02.237Z,7.90
2019-02-24T08:47:30.564Z,8.00
2019-02-24T08:49:58.529Z,7.90
2019-02-24T08:52:26.482Z,7.70
2019-02-24T08:54:55.087Z,7.70
2019-02-24T08:57:23.041Z,7.70
2019-02-24T08:59:51.074Z,7.80
2019-02-24T09:02:19.571Z,8.10
2019-02-24T09:04:47.863Z,8.30
2019-02-24T09:07:15.900Z,8.50
2019-02-24T09:09:43.777Z,8.70
2019-02-24T09:12:12.189Z,8.80
2019-02-24T09:14:40.153Z,9.00
2019-02-24T09:17:08.231Z,9.00
2019-02-24T09:19:36.875Z,9.00
2019-02-24T09:22:05.698Z,9.10
2019-02-24T09:24:33.955Z,9.20
2019-02-24T09:27:02.369Z,9.20
2019-02-24T09:29:30.490Z,9.40
2019-02-24T09:31:58.484Z,9.40
2019-02-24T09:34:26.661Z,9.30
2019-02-24T09:36:54.708Z,9.20
2019-02-24T09:39:24.756Z,9.10
2019-02-24T09:41:52.857Z,9.20
2019-02-24T09:44:20.766Z,9.40
2019-02-24T09:46:48.940Z,9.50
2019-02-24T09:49:17.210Z,9.60
2019-02-24T09:51:46.427Z,9.80
2019-02-24T09:54:14.794Z,9.70
2019-02-24T09:56:43.096Z,9.10
2019-02-24T09:59:11.321Z,9.20
2019-02-24T10:01:39.495Z,9.10
2019-02-24T10:04:07.520Z,9.30
2019-02-24T10:06:36.389Z,9.40
2019-02-24T10:09:04.685Z,9.50
2019-02-24T10:11:33.492Z,9.70
2019-02-24T10:14:01.395Z,10.10
2019-02-24T10:16:29.381Z,10.20
2019-02-24T10:18:57.819Z,10.10
2019-02-24T10:21:25.872Z,10.40
2019-02-24T10:23:53.926Z,10.80
2019-02-24T10:26:22.147Z,10.80
2019-02-24T10:28:50.355Z,10.60
2019-02-24T10:31:20.324Z,10.70
2019-02-24T10:33:49.381Z,10.90
2019-02-24T10:36:17.925Z,10.70
2019-02-24T10:38:46.119Z,11.00
2019-02-24T10:41:14.075Z,11.40
2019-02-24T10:43:41.980Z,11.50
2019-02-24T10:46:11.407Z,11.80
2019-02-24T10:48:39.546Z,12.00
2019-02-24T10:51:07.470Z,12.10
2019-02-24T10:53:35.665Z,12.00
2019-02-24T10:56:03.732Z,12.20
2019-02-24T10:58:34.762Z,12.00
2019-02-24T11:01:01.717Z,12.20
2019-02-24T11:03:30.178Z,12.10
2019-02-24T11:05:58.146Z,11.20
2019-02-24T11:08:26.847Z,10.70
2019-02-24T11:10:55.394Z,11.00
2019-02-24T11:13:23.434Z,11.40
2019-02-24T11:15:51.438Z,11.80
2019-02-24T11:18:19.533Z,12.30
2019-02-24T11:20:47.598Z,12.40
2019-02-24T11:23:15.728Z,12.40
2019-02-24T11:25:44.096Z,12.40
2019-02-24T11:28:12.383Z,11.20
2019-02-24T11:30:40.352Z,11.10
2019-02-24T11:33:08.509Z,11.40
2019-02-24T11:35:36.506Z,11.40
2019-02-24T11:38:04.693Z,11.40
2019-02-24T11:40:32.792Z,11.40
2019-02-24T11:43:00.929Z,11.00
2019-02-24T11:45:28.888Z,10.80
2019-02-24T11:47:56.984Z,11.10
2019-02-24T11:50:25.456Z,11.30
2019-02-24T11:52:53.665Z,11.80
2019-02-24T11:55:21.823Z,12.10
2019-02-24T11:57:49.910Z,12.20
2019-02-24T12:00:19.423Z,11.50
2019-02-24T12:02:47.481Z,11.30
2019-02-24T12:05:15.484Z,11.40
2019-02-24T12:07:44.134Z,11.80
2019-02-24T12:10:13.779Z,11.50
2019-02-24T12:12:41.691Z,11.40
2019-02-24T12:15:10.288Z,11.50
2019-02-24T12:17:38.286Z,11.70
2019-02-24T12:20:08.928Z,11.30
2019-02-24T12:22:36.857Z,11.10
2019-02-24T12:25:06.026Z,11.00
2019-02-24T12:27:33.984Z,11.40
2019-02-24T12:30:02.054Z,11.80
2019-02-24T12:32:30.129Z,11.70
2019-02-24T12:34:58.299Z,11.80
2019-02-24T12:37:26.380Z,11.60
2019-02-24T12:39:54.422Z,11.30
2019-02-24T12:42:22.470Z,11.50
2019-02-24T12:44:50.470Z,11.90
2019-02-24T12:47:19.131Z,12.00
2019-02-24T12:49:47.266Z,11.70
2019-02-24T12:52:15.363Z,12.20
2019-02-24T12:54:43.392Z,12.40
2019-02-24T12:57:11.471Z,12.60
2019-02-24T12:59:39.624Z,13.00
2019-02-24T13:02:08.176Z,13.30
2019-02-24T13:04:36.274Z,12.80
2019-02-24T13:07:06.724Z,12.90
2019-02-24T13:09:34.980Z,13.30
2019-02-24T13:12:03.022Z,12.40
2019-02-24T13:14:31.544Z,12.40
2019-02-24T13:16:59.517Z,12.70
2019-02-24T13:19:27.482Z,12.60
2019-02-24T13:21:55.649Z,12.90
2019-02-24T13:24:23.744Z,13.10
2019-02-24T13:26:52.103Z,13.30
2019-02-24T13:29:20.585Z,13.70
2019-02-24T13:31:48.555Z,14.00
2019-02-24T13:34:17.657Z,14.10
2019-02-24T13:36:59.605Z,14.30
2019-02-24T13:39:27.745Z,14.50
2019-02-24T13:41:55.798Z,14.40
2019-02-24T13:44:23.827Z,14.30
2019-02-24T13:46:51.787Z,13.90
2019-02-24T13:49:20.277Z,13.70
2019-02-24T13:51:49.360Z,13.90
2019-02-24T13:54:17.602Z,14.00
2019-02-24T13:56:45.725Z,14.30
2019-02-24T13:59:13.928Z,14.60
2019-02-24T14:01:42.069Z,14.60
2019-02-24T14:04:10.243Z,14.60
2019-02-24T14:06:38.429Z,14.60
2019-02-24T14:09:07.380Z,14.70
2019-02-24T14:11:35.559Z,14.70
2019-02-24T14:14:03.675Z,14.80
2019-02-24T14:16:32.225Z,14.70
2019-02-24T14:19:00.347Z,14.30
2019-02-24T14:21:28.559Z,13.90
2019-02-24T14:23:56.710Z,13.70
2019-02-24T14:26:24.866Z,14.00
2019-02-24T14:28:52.982Z,14.20
2019-02-24T14:31:20.936Z,14.30
2019-02-24T14:33:48.971Z,14.30
2019-02-24T14:36:17.532Z,14.80
2019-02-24T14:38:46.913Z,14.90
2019-02-24T14:41:15.296Z,14.70
2019-02-24T14:43:43.312Z,14.60
2019-02-24T14:46:12.029Z,14.70
2019-02-24T14:48:40.510Z,14.30
2019-02-24T14:51:10.358Z,14.40
2019-02-24T14:53:38.507Z,14.00
2019-02-24T14:56:07.069Z,14.40
2019-02-24T14:58:35.041Z,14.30
2019-02-24T15:01:03.722Z,13.90
2019-02-24T15:03:31.736Z,14.00
2019-02-24T15:05:59.933Z,14.10
2019-02-24T15:08:27.953Z,14.30
2019-02-24T15:10:55.905Z,14.60
2019-02-24T15:13:23.882Z,14.20
2019-02-24T15:15:51.885Z,14.10
2019-02-24T15:18:19.857Z,14.30
2019-02-24T15:20:47.961Z,14.30
2019-02-24T15:23:15.889Z,14.40
2019-02-24T15:25:43.936Z,14.40
2019-02-24T15:28:11.922Z,14.40
2019-02-24T15:30:40.171Z,14.50
2019-02-24T15:33:10.659Z,14.60
2019-02-24T15:35:40.045Z,14.70
2019-02-24T15:38:08.377Z,14.70
2019-02-24T15:40:36.447Z,14.50
2019-02-24T15:43:04.372Z,14.20
2019-02-24T15:45:32.398Z,14.30
2019-02-24T15:48:00.674Z,14.40
2019-02-24T15:50:28.783Z,14.40
2019-02-24T15:52:57.315Z,14.50
2019-02-24T15:55:25.377Z,14.50
2019-02-24T15:57:53.455Z,14.40
2019-02-24T16:00:22.056Z,14.00
2019-02-24T16:02:50.047Z,13.80
2019-02-24T16:05:19.006Z,13.70
2019-02-24T16:07:46.980Z,13.80
2019-02-24T16:10:16.356Z,13.90
2019-02-24T16:12:44.428Z,13.90
2019-02-24T16:15:14.376Z,13.80
2019-02-24T16:17:42.624Z,13.70
2019-02-24T16:20:14.600Z,13.60
2019-02-24T16:22:42.996Z,13.60
2019-02-24T16:25:11.222Z,13.60
2019-02-24T16:27:39.327Z,13.60
2019-02-24T16:30:10.428Z,13.50
2019-02-24T16:32:38.481Z,13.50
2019-02-24T16:35:08.250Z,13.40
2019-02-24T16:37:36.720Z,13.40
2019-02-24T16:40:07.421Z,13.30
2019-02-24T16:42:35.436Z,13.30
2019-02-24T16:45:03.601Z,13.20
2019-02-24T16:47:31.676Z,13.20
2019-02-24T16:50:00.219Z,13.10
2019-02-24T16:52:28.801Z,12.70
2019-02-24T16:54:56.883Z,12.50
2019-02-24T16:57:25.108Z,12.30
2019-02-24T16:59:53.096Z,11.90
2019-02-24T17:02:23.965Z,12.00
2019-02-24T17:04:51.972Z,11.90
2019-02-24T17:07:20.550Z,11.70
2019-02-24T17:09:48.527Z,11.60
2019-02-24T17:12:16.810Z,11.40
2019-02-24T17:14:44.756Z,11.10
2019-02-24T17:17:13.033Z,10.90
2019-02-24T17:19:41.102Z,10.70
2019-02-24T17:22:09.234Z,10.40
2019-02-24T17:24:37.453Z,10.50
2019-02-24T17:27:05.562Z,10.20
2019-02-24T17:29:33.574Z,9.90
2019-02-24T17:32:02.015Z,9.90
2019-02-24T17:34:30.119Z,9.70
2019-02-24T17:36:58.270Z,9.60
2019-02-24T17:39:26.711Z,9.60
2019-02-24T17:41:54.868Z,9.40
2019-02-24T17:44:22.930Z,9.20
2019-02-24T17:46:51.001Z,9.00
2019-02-24T17:49:19.136Z,9.10
2019-02-24T17:51:47.755Z,9.00
2019-02-24T17:54:15.755Z,8.90
2019-02-24T17:56:43.959Z,9.00
2019-02-24T17:59:12.282Z,8.90
2019-02-24T18:01:40.519Z,8.90
2019-02-24T18:04:08.554Z,8.90
2019-02-24T18:06:37.011Z,8.80
2019-02-24T18:09:06.006Z,8.80
2019-02-24T18:11:34.502Z,8.80
2019-02-24T18:14:02.858Z,8.70
2019-02-24T18:16:30.992Z,8.60
2019-02-24T18:18:59.227Z,8.70
2019-02-24T18:21:27.519Z,8.60
2019-02-24T18:23:55.906Z,8.40
2019-02-24T18:26:24.757Z,8.50
2019-02-24T18:29:07.084Z,8.50
2019-02-24T18:31:35.669Z,8.50
2019-02-24T18:34:04.140Z,8.40
2019-02-24T18:36:32.988Z,8.70
2019-02-24T18:39:01.401Z,8.50
2019-02-24T18:41:30.496Z,8.30
2019-02-24T18:43:58.746Z,8.40
2019-02-24T18:46:29.452Z,8.20
2019-02-24T18:48:57.921Z,8.50
2019-02-24T18:51:26.693Z,8.50
2019-02-24T18:53:56.111Z,8.50
2019-02-24T18:56:43.561Z,8.70
2019-02-24T18:59:12.592Z,8.80
2019-02-24T19:01:41.834Z,8.90
2019-02-24T19:04:10.586Z,8.70
2019-02-24T19:06:39.552Z,8.50
2019-02-24T19:09:08.560Z,8.40
2019-02-24T19:11:39.090Z,8.20
2019-02-24T19:14:10.221Z,8.40
2019-02-24T19:16:40.957Z,8.50
2019-02-24T19:19:09.330Z,8.30
2019-02-24T19:21:43.474Z,8.30
2019-02-24T19:24:12.151Z,8.30
2019-02-24T19:26:42.563Z,8.20
2019-02-24T19:29:18.215Z,8.10
2019-02-24T19:31:46.992Z,7.80
2019-02-24T19:34:15.800Z,8.00
2019-02-24T19:36:44.092Z,8.00
2019-02-24T19:39:18.201Z,7.90
2019-02-24T19:41:47.151Z,7.90
2019-02-24T19:44:15.606Z,7.90
2019-02-24T19:46:43.970Z,7.90
2019-02-24T19:49:12.565Z,8.10
2019-02-24T19:51:41.421Z,8.10
2019-02-24T19:54:10.050Z,7.80
2019-02-24T19:56:38.495Z,7.90
2019-02-24T19:59:07.279Z,8.20
2019-02-24T20:01:35.886Z,8.10
2019-02-24T20:04:03.997Z,7.90
2019-02-24T20:06:32.127Z,8.20
2019-02-24T20:09:00.367Z,8.20
2019-02-24T20:11:28.766Z,8.40
2019-02-24T20:13:56.778Z,8.10
2019-02-24T20:16:25.466Z,8.10
2019-02-24T20:18:54.042Z,8.30
2019-02-24T20:21:22.317Z,8.30
2019-02-24T20:23:50.595Z,8.40
2019-02-24T20:26:18.888Z,8.20
2019-02-24T20:28:47.325Z,8.20
2019-02-24T20:31:15.756Z,7.90
2019-02-24T20:33:44.186Z,8.00
2019-02-24T20:36:12.292Z,7.90
2019-02-24T20:38:40.508Z,7.90
2019-02-24T20:41:08.667Z,7.90
2019-02-24T20:43:37.073Z,7.80
2019-02-24T20:46:05.480Z,7.80
2019-02-24T20:48:33.684Z,7.60
2019-02-24T20:51:02.134Z,7.80
2019-02-24T20:53:30.372Z,8.00
2019-02-24T20:55:59.690Z,7.80
2019-02-24T20:58:28.739Z,7.80
2019-02-24T21:00:56.911Z,7.60
2019-02-24T21:03:25.088Z,7.70
2019-02-24T21:05:53.298Z,7.70
2019-02-24T21:08:21.666Z,7.90
2019-02-24T21:10:49.706Z,7.70
2019-02-24T21:13:18.076Z,7.50
2019-02-24T21:15:49.671Z,7.70
2019-02-24T21:18:18.023Z,7.50
2019-02-24T21:20:46.126Z,7.20
2019-02-24T21:23:14.406Z,7.10
2019-02-24T21:25:43.015Z,7.10
2019-02-24T21:28:11.864Z,7.20
2019-02-24T21:30:39.912Z,7.00
2019-02-24T21:33:08.129Z,7.00
2019-02-24T21:35:40.057Z,6.90
2019-02-24T21:38:08.278Z,6.70
2019-02-24T21:40:36.899Z,7.50
2019-02-24T21:43:04.900Z,7.40
2019-02-24T21:45:32.959Z,7.40
2019-02-24T21:48:01.029Z,7.00
2019-02-24T21:50:29.659Z,7.30
2019-02-24T21:52:57.728Z,7.10
2019-02-24T21:55:25.738Z,6.90
2019-02-24T21:57:53.852Z,6.60
2019-02-24T22:00:22.209Z,6.80
2019-02-24T22:03:03.236Z,6.70
2019-02-24T22:05:31.320Z,6.90
2019-02-24T22:07:59.295Z,6.70
2019-02-24T22:10:27.550Z,6.80
2019-02-24T22:12:56.027Z,6.80
2019-02-24T22:15:24.195Z,6.60
2019-02-24T22:17:52.254Z,6.60
2019-02-24T22:20:20.424Z,6.40
2019-02-24T22:22:48.549Z,6.50
2019-02-24T22:25:16.922Z,6.20
2019-02-24T22:27:44.896Z,6.40
2019-02-24T22:30:15.038Z,6.40
2019-02-24T22:32:43.155Z,6.50
2019-02-24T22:35:11.157Z,6.60
2019-02-24T22:37:39.125Z,6.40
2019-02-24T22:40:09.829Z,6.20
2019-02-24T22:42:37.816Z,6.40
2019-02-24T22:45:08.598Z,6.40
2019-02-24T22:47:36.657Z,6.30
2019-02-24T22:50:04.884Z,6.30
2019-02-24T22:52:32.905Z,6.00
2019-02-24T22:55:01.076Z,5.70
2019-02-24T22:57:29.170Z,5.80
2019-02-24T22:59:57.220Z,5.80
2019-02-24T23:02:25.296Z,5.80
2019-02-24T23:04:53.285Z,5.60
2019-02-24T23:07:21.359Z,5.60
2019-02-24T23:09:49.557Z,5.60
2019-02-24T23:12:17.909Z,5.60
2019-02-24T23:14:46.204Z,5.50
2019-02-24T23:17:14.151Z,5.50
2019-02-24T23:19:42.110Z,5.50
2019-02-24T23:22:10.094Z,5.50
2019-02-24T23:24:38.012Z,5.30
2019-02-24T23:27:05.966Z,5.40
2019-02-24T23:29:34.150Z,5.30
2019-02-24T23:32:04.372Z,5.10
2019-02-24T23:34:32.523Z,5.30
2019-02-24T23:37:00.438Z,5.40
2019-02-24T23:39:28.855Z,5.20
2019-02-24T23:41:57.740Z,5.40
2019-02-24T23:44:26.001Z,5.20
2019-02-24T23:46:54.076Z,5.00
2019-02-24T23:49:21.980Z,5.20
2019-02-24T23:51:49.883Z,5.30
2019-02-24T23:54:17.920Z,5.40
2019-02-24T23:56:46.131Z,5.10
2019-02-24T23:59:14.157Z,5.00
